sensor_id;sensor_type;location;lat;lon;timestamp;temperature;humidity
26272;DHT22;13997;48.902;12.472;2023-04-03T00:00:25;102.50;2227.20
26272;DHT22;13997;48.902;12.472;2023-04-03T00:02:51;102.50;2227.20
26272;DHT22;13997;48.902;12.472;2023-04-03T00:05:16;102.50;2227.20
26272;DHT22;13997;48.902;12.472;2023-04-03T00:07:42;102.50;2227.20
26272;DHT22;13997;48.902;12.472;2023-04-03T00:10:08;102.50;2227.20
26272;DHT22;13997;48.902;12.472;2023-04-03T00:12:34;102.50;2227.20
26272;DHT22;13997;48.902;12.472;2023-04-03T00:14:59;102.50;2227.20
26272;DHT22;13997;48.902;12.472;2023-04-03T00:17:25;102.50;2227.20
26272;DHT22;13997;48.902;12.472;2023-04-03T00:19:50;102.50;2227.20
26272;DHT22;13997;48.902;12.472;2023-04-03T00:22:16;102.50;2227.20
26272;DHT22;13997;48.902;12.472;2023-04-03T00:24:42;102.50;2227.20
26272;DHT22;13997;48.902;12.472;2023-04-03T00:27:07;102.50;2227.20
26272;DHT22;13997;48.902;12.472;2023-04-03T00:29:33;102.50;2227.20
26272;DHT22;13997;48.902;12.472;2023-04-03T00:31:58;102.50;2227.20
26272;DHT22;13997;48.902;12.472;2023-04-03T00:34:24;102.50;2227.20
26272;DHT22;13997;48.902;12.472;2023-04-03T00:36:50;102.50;2227.20
26272;DHT22;13997;48.902;12.472;2023-04-03T00:39:16;102.50;2227.20
26272;DHT22;13997;48.902;12.472;2023-04-03T00:41:42;102.50;2227.20
26272;DHT22;13997;48.902;12.472;2023-04-03T00:47:05;102.50;2227.20
26272;DHT22;13997;48.902;12.472;2023-04-03T00:49:31;102.50;2227.20
26272;DHT22;13997;48.902;12.472;2023-04-03T00:51:57;102.50;2227.20
26272;DHT22;13997;48.902;12.472;2023-04-03T00:54:24;102.50;2227.20
26272;DHT22;13997;48.902;12.472;2023-04-03T00:56:51;102.50;2227.20
26272;DHT22;13997;48.902;12.472;2023-04-03T00:59:21;102.40;2227.20
26272;DHT22;13997;48.902;12.472;2023-04-03T01:01:51;102.50;2227.20
26272;DHT22;13997;48.902;12.472;2023-04-03T01:04:36;102.40;2227.20
26272;DHT22;13997;48.902;12.472;2023-04-03T01:07:06;102.40;2227.20
26272;DHT22;13997;48.902;12.472;2023-04-03T01:09:33;102.40;2227.20
26272;DHT22;13997;48.902;12.472;2023-04-03T01:12:21;102.40;2227.20
26272;DHT22;13997;48.902;12.472;2023-04-03T01:14:52;102.40;2227.20
26272;DHT22;13997;48.902;12.472;2023-04-03T01:17:38;102.40;2227.20
26272;DHT22;13997;48.902;12.472;2023-04-03T01:25:46;102.40;2227.20
26272;DHT22;13997;48.902;12.472;2023-04-03T01:28:19;102.40;2227.20
26272;DHT22;13997;48.902;12.472;2023-04-03T01:33:33;102.40;2227.20
26272;DHT22;13997;48.902;12.472;2023-04-03T01:35:58;102.40;2227.20
26272;DHT22;13997;48.902;12.472;2023-04-03T01:38:24;102.40;2227.20
26272;DHT22;13997;48.902;12.472;2023-04-03T01:40:50;102.40;2227.20
26272;DHT22;13997;48.902;12.472;2023-04-03T01:43:16;102.40;2227.20
26272;DHT22;13997;48.902;12.472;2023-04-03T01:45:41;102.40;2227.20
26272;DHT22;13997;48.902;12.472;2023-04-03T01:48:07;102.40;2227.20
26272;DHT22;13997;48.902;12.472;2023-04-03T01:50:33;102.40;2227.20
26272;DHT22;13997;48.902;12.472;2023-04-03T01:52:59;102.40;2227.20
26272;DHT22;13997;48.902;12.472;2023-04-03T01:55:24;102.40;2227.20
26272;DHT22;13997;48.902;12.472;2023-04-03T01:57:50;102.40;2227.20
26272;DHT22;13997;48.902;12.472;2023-04-03T02:00:16;102.40;2227.20
26272;DHT22;13997;48.902;12.472;2023-04-03T02:02:41;102.40;2227.20
26272;DHT22;13997;48.902;12.472;2023-04-03T02:05:07;102.40;2227.20
26272;DHT22;13997;48.902;12.472;2023-04-03T02:07:33;102.40;2227.20
26272;DHT22;13997;48.902;12.472;2023-04-03T02:09:59;77.70;2227.20
26272;DHT22;13997;48.902;12.472;2023-04-03T02:12:24;102.40;2227.20
26272;DHT22;13997;48.902;12.472;2023-04-03T02:14:50;102.40;2227.20
26272;DHT22;13997;48.902;12.472;2023-04-03T02:17:15;102.40;2227.20
26272;DHT22;13997;48.902;12.472;2023-04-03T02:19:41;102.40;2227.20
26272;DHT22;13997;48.902;12.472;2023-04-03T02:22:07;102.40;2227.20
26272;DHT22;13997;48.902;12.472;2023-04-03T02:24:32;102.40;2227.20
26272;DHT22;13997;48.902;12.472;2023-04-03T02:26:58;77.70;2227.20
26272;DHT22;13997;48.902;12.472;2023-04-03T02:29:23;102.40;2227.20
26272;DHT22;13997;48.902;12.472;2023-04-03T02:31:49;102.40;2227.20
26272;DHT22;13997;48.902;12.472;2023-04-03T02:34:16;102.40;2227.20
26272;DHT22;13997;48.902;12.472;2023-04-03T02:36:41;102.40;2227.20
26272;DHT22;13997;48.902;12.472;2023-04-03T02:39:07;102.40;2227.20
26272;DHT22;13997;48.902;12.472;2023-04-03T02:41:32;102.40;2227.20
26272;DHT22;13997;48.902;12.472;2023-04-03T02:44:02;102.40;2227.20
26272;DHT22;13997;48.902;12.472;2023-04-03T02:46:28;77.70;2227.20
26272;DHT22;13997;48.902;12.472;2023-04-03T02:48:54;77.70;2227.20
26272;DHT22;13997;48.902;12.472;2023-04-03T02:51:19;77.70;2227.20
26272;DHT22;13997;48.902;12.472;2023-04-03T02:53:45;77.70;2227.20
26272;DHT22;13997;48.902;12.472;2023-04-03T02:56:11;77.70;2227.20
26272;DHT22;13997;48.902;12.472;2023-04-03T02:58:36;77.70;2227.20
26272;DHT22;13997;48.902;12.472;2023-04-03T03:01:02;77.70;2227.20
26272;DHT22;13997;48.902;12.472;2023-04-03T03:03:27;77.70;2227.20
26272;DHT22;13997;48.902;12.472;2023-04-03T03:08:28;77.70;2227.20
26272;DHT22;13997;48.902;12.472;2023-04-03T03:10:53;77.70;2227.20
26272;DHT22;13997;48.902;12.472;2023-04-03T03:13:19;77.70;2227.20
26272;DHT22;13997;48.902;12.472;2023-04-03T03:15:45;77.70;2227.20
26272;DHT22;13997;48.902;12.472;2023-04-03T03:18:10;77.70;2227.20
26272;DHT22;13997;48.902;12.472;2023-04-03T03:20:36;77.70;2227.20
26272;DHT22;13997;48.902;12.472;2023-04-03T03:23:02;77.70;2227.20
26272;DHT22;13997;48.902;12.472;2023-04-03T03:25:27;77.70;2227.20
26272;DHT22;13997;48.902;12.472;2023-04-03T03:27:53;77.60;2227.20
26272;DHT22;13997;48.902;12.472;2023-04-03T03:30:18;77.60;2227.20
26272;DHT22;13997;48.902;12.472;2023-04-03T03:32:44;77.60;2227.20
26272;DHT22;13997;48.902;12.472;2023-04-03T03:35:09;77.60;2227.20
26272;DHT22;13997;48.902;12.472;2023-04-03T03:37:35;77.60;2227.20
26272;DHT22;13997;48.902;12.472;2023-04-03T03:40:01;77.60;2227.20
26272;DHT22;13997;48.902;12.472;2023-04-03T03:42:26;77.60;2227.20
26272;DHT22;13997;48.902;12.472;2023-04-03T03:44:52;77.60;2227.20
26272;DHT22;13997;48.902;12.472;2023-04-03T03:47:17;77.60;2227.20
26272;DHT22;13997;48.902;12.472;2023-04-03T03:49:43;77.60;2227.20
26272;DHT22;13997;48.902;12.472;2023-04-03T03:52:08;77.60;2227.20
26272;DHT22;13997;48.902;12.472;2023-04-03T03:54:36;77.60;2227.20
26272;DHT22;13997;48.902;12.472;2023-04-03T03:57:02;77.60;2227.20
26272;DHT22;13997;48.902;12.472;2023-04-03T03:59:28;77.60;2227.20
26272;DHT22;13997;48.902;12.472;2023-04-03T04:01:54;77.60;2227.20
26272;DHT22;13997;48.902;12.472;2023-04-03T04:04:20;77.50;2227.20
26272;DHT22;13997;48.902;12.472;2023-04-03T04:06:45;77.50;2227.20
26272;DHT22;13997;48.902;12.472;2023-04-03T04:09:11;77.50;2227.20
26272;DHT22;13997;48.902;12.472;2023-04-03T04:11:37;77.60;2227.20
26272;DHT22;13997;48.902;12.472;2023-04-03T04:14:05;77.50;2227.20
26272;DHT22;13997;48.902;12.472;2023-04-03T04:16:31;77.50;2227.20
26272;DHT22;13997;48.902;12.472;2023-04-03T04:18:56;77.50;2227.20
26272;DHT22;13997;48.902;12.472;2023-04-03T04:21:22;77.50;2227.20
26272;DHT22;13997;48.902;12.472;2023-04-03T04:23:48;77.50;2227.20
26272;DHT22;13997;48.902;12.472;2023-04-03T04:26:13;77.50;2227.20
26272;DHT22;13997;48.902;12.472;2023-04-03T04:28:39;77.50;2227.20
26272;DHT22;13997;48.902;12.472;2023-04-03T04:31:04;77.50;2227.20
26272;DHT22;13997;48.902;12.472;2023-04-03T04:33:30;77.50;2227.20
26272;DHT22;13997;48.902;12.472;2023-04-03T04:35:56;77.50;2227.20
26272;DHT22;13997;48.902;12.472;2023-04-03T04:38:21;77.60;2227.20
26272;DHT22;13997;48.902;12.472;2023-04-03T04:40:47;77.50;2227.20
26272;DHT22;13997;48.902;12.472;2023-04-03T04:43:13;77.60;2227.20
26272;DHT22;13997;48.902;12.472;2023-04-03T04:45:40;77.50;2227.20
26272;DHT22;13997;48.902;12.472;2023-04-03T04:48:06;77.50;2227.20
26272;DHT22;13997;48.902;12.472;2023-04-03T04:50:33;77.50;2227.20
26272;DHT22;13997;48.902;12.472;2023-04-03T04:52:59;77.60;2227.20
26272;DHT22;13997;48.902;12.472;2023-04-03T04:55:25;77.50;2227.20
26272;DHT22;13997;48.902;12.472;2023-04-03T04:57:50;77.50;2227.20
26272;DHT22;13997;48.902;12.472;2023-04-03T05:00:17;77.60;2227.20
26272;DHT22;13997;48.902;12.472;2023-04-03T05:02:43;77.60;2227.20
26272;DHT22;13997;48.902;12.472;2023-04-03T05:05:08;77.60;2227.20
26272;DHT22;13997;48.902;12.472;2023-04-03T05:07:34;77.50;2227.20
26272;DHT22;13997;48.902;12.472;2023-04-03T05:10:01;77.50;2227.20
26272;DHT22;13997;48.902;12.472;2023-04-03T05:12:27;77.50;2227.20
26272;DHT22;13997;48.902;12.472;2023-04-03T05:14:53;77.50;2227.20
26272;DHT22;13997;48.902;12.472;2023-04-03T05:17:19;77.50;2227.20
26272;DHT22;13997;48.902;12.472;2023-04-03T05:19:45;77.50;2227.20
26272;DHT22;13997;48.902;12.472;2023-04-03T05:22:10;77.60;2227.20
26272;DHT22;13997;48.902;12.472;2023-04-03T05:24:36;77.60;2227.20
26272;DHT22;13997;48.902;12.472;2023-04-03T05:27:01;77.60;2227.20
26272;DHT22;13997;48.902;12.472;2023-04-03T05:29:27;77.60;2227.20
26272;DHT22;13997;48.902;12.472;2023-04-03T05:31:52;77.60;2227.20
26272;DHT22;13997;48.902;12.472;2023-04-03T05:34:18;77.70;2227.20
26272;DHT22;13997;48.902;12.472;2023-04-03T05:36:44;77.70;2227.20
26272;DHT22;13997;48.902;12.472;2023-04-03T05:39:10;77.70;2227.20
26272;DHT22;13997;48.902;12.472;2023-04-03T05:41:35;77.70;2227.20
26272;DHT22;13997;48.902;12.472;2023-04-03T05:44:01;77.70;2227.20
26272;DHT22;13997;48.902;12.472;2023-04-03T05:46:27;77.60;2227.20
26272;DHT22;13997;48.902;12.472;2023-04-03T05:48:52;77.60;2227.20
26272;DHT22;13997;48.902;12.472;2023-04-03T05:51:22;77.70;2227.20
26272;DHT22;13997;48.902;12.472;2023-04-03T05:53:48;77.60;2227.20
26272;DHT22;13997;48.902;12.472;2023-04-03T05:56:14;77.60;2227.20
26272;DHT22;13997;48.902;12.472;2023-04-03T05:58:40;77.60;2227.20
26272;DHT22;13997;48.902;12.472;2023-04-03T06:01:05;77.60;2227.20
26272;DHT22;13997;48.902;12.472;2023-04-03T06:03:31;77.60;2227.20
26272;DHT22;13997;48.902;12.472;2023-04-03T06:05:57;77.70;2227.20
26272;DHT22;13997;48.902;12.472;2023-04-03T06:08:22;77.70;2227.20
26272;DHT22;13997;48.902;12.472;2023-04-03T06:10:49;77.70;2227.20
26272;DHT22;13997;48.902;12.472;2023-04-03T06:13:16;77.70;2227.20
26272;DHT22;13997;48.902;12.472;2023-04-03T06:15:41;77.70;2227.20
26272;DHT22;13997;48.902;12.472;2023-04-03T06:18:07;77.70;2227.20
26272;DHT22;13997;48.902;12.472;2023-04-03T06:20:33;77.70;2227.20
26272;DHT22;13997;48.902;12.472;2023-04-03T06:22:59;77.70;2227.20
26272;DHT22;13997;48.902;12.472;2023-04-03T06:25:25;77.70;2227.20
26272;DHT22;13997;48.902;12.472;2023-04-03T06:27:51;77.70;2227.20
26272;DHT22;13997;48.902;12.472;2023-04-03T06:30:17;77.70;2227.20
26272;DHT22;13997;48.902;12.472;2023-04-03T06:32:43;77.70;2227.20
26272;DHT22;13997;48.902;12.472;2023-04-03T06:35:09;77.70;2227.20
26272;DHT22;13997;48.902;12.472;2023-04-03T06:37:35;102.40;2227.20
26272;DHT22;13997;48.902;12.472;2023-04-03T06:40:03;102.40;2227.20
26272;DHT22;13997;48.902;12.472;2023-04-03T06:42:29;102.40;2227.20
26272;DHT22;13997;48.902;12.472;2023-04-03T06:44:55;102.50;2227.20
26272;DHT22;13997;48.902;12.472;2023-04-03T06:47:21;102.50;2227.20
26272;DHT22;13997;48.902;12.472;2023-04-03T06:49:46;102.50;2227.20
26272;DHT22;13997;48.902;12.472;2023-04-03T06:52:12;102.50;2227.20
26272;DHT22;13997;48.902;12.472;2023-04-03T06:54:38;102.50;2227.20
26272;DHT22;13997;48.902;12.472;2023-04-03T06:57:04;102.50;2227.20
26272;DHT22;13997;48.902;12.472;2023-04-03T06:59:30;102.50;2227.20
26272;DHT22;13997;48.902;12.472;2023-04-03T07:01:55;102.50;2227.20
26272;DHT22;13997;48.902;12.472;2023-04-03T07:04:21;102.50;2227.20
26272;DHT22;13997;48.902;12.472;2023-04-03T07:06:47;102.60;2227.20
26272;DHT22;13997;48.902;12.472;2023-04-03T07:09:14;102.60;2227.20
26272;DHT22;13997;48.902;12.472;2023-04-03T07:11:40;102.70;2227.20
26272;DHT22;13997;48.902;12.472;2023-04-03T07:14:06;102.70;2227.20
26272;DHT22;13997;48.902;12.472;2023-04-03T07:16:36;102.70;2227.20
26272;DHT22;13997;48.902;12.472;2023-04-03T07:19:02;102.70;2227.20
26272;DHT22;13997;48.902;12.472;2023-04-03T07:21:28;102.60;2227.20
26272;DHT22;13997;48.902;12.472;2023-04-03T07:23:54;102.60;2227.20
26272;DHT22;13997;48.902;12.472;2023-04-03T07:26:21;102.50;2227.20
26272;DHT22;13997;48.902;12.472;2023-04-03T07:28:48;102.50;2227.20
26272;DHT22;13997;48.902;12.472;2023-04-03T07:31:14;102.70;2227.20
26272;DHT22;13997;48.902;12.472;2023-04-03T07:33:41;102.80;2227.20
26272;DHT22;13997;48.902;12.472;2023-04-03T07:36:07;102.80;2227.20
26272;DHT22;13997;48.902;12.472;2023-04-03T07:38:34;102.90;2227.20
26272;DHT22;13997;48.902;12.472;2023-04-03T07:41:00;102.90;2227.20
26272;DHT22;13997;48.902;12.472;2023-04-03T07:43:26;103.00;2227.20
26272;DHT22;13997;48.902;12.472;2023-04-03T07:49:06;103.20;2227.20
26272;DHT22;13997;48.902;12.472;2023-04-03T07:51:32;103.20;2227.20
26272;DHT22;13997;48.902;12.472;2023-04-03T07:53:57;128.00;2252.80
26272;DHT22;13997;48.902;12.472;2023-04-03T07:56:24;128.30;2252.80
26272;DHT22;13997;48.902;12.472;2023-04-03T07:58:50;128.40;2252.80
26272;DHT22;13997;48.902;12.472;2023-04-03T08:01:16;128.50;2252.80
26272;DHT22;13997;48.902;12.472;2023-04-03T08:03:42;128.90;2252.80
26272;DHT22;13997;48.902;12.472;2023-04-03T08:06:09;128.60;2252.80
26272;DHT22;13997;48.902;12.472;2023-04-03T08:08:35;128.50;2252.80
26272;DHT22;13997;48.902;12.472;2023-04-03T08:11:02;128.30;2252.80
26272;DHT22;13997;48.902;12.472;2023-04-03T08:13:29;128.10;2252.80
26272;DHT22;13997;48.902;12.472;2023-04-03T08:15:55;128.00;2252.80
26272;DHT22;13997;48.902;12.472;2023-04-03T08:18:23;128.30;2252.80
26272;DHT22;13997;48.902;12.472;2023-04-03T08:20:50;128.40;2252.80
26272;DHT22;13997;48.902;12.472;2023-04-03T08:23:17;128.60;2252.80
26272;DHT22;13997;48.902;12.472;2023-04-03T08:25:43;128.60;2252.80
26272;DHT22;13997;48.902;12.472;2023-04-03T08:28:10;128.50;2252.80
26272;DHT22;13997;48.902;12.472;2023-04-03T08:30:39;128.40;2252.80
26272;DHT22;13997;48.902;12.472;2023-04-03T08:33:05;128.40;2252.80
26272;DHT22;13997;48.902;12.472;2023-04-03T08:35:31;128.40;2252.80
26272;DHT22;13997;48.902;12.472;2023-04-03T08:37:57;128.40;2252.80
26272;DHT22;13997;48.902;12.472;2023-04-03T08:40:23;128.60;2252.80
26272;DHT22;13997;48.902;12.472;2023-04-03T08:45:45;128.60;2252.80
26272;DHT22;13997;48.902;12.472;2023-04-03T08:48:26;128.50;2252.80
26272;DHT22;13997;48.902;12.472;2023-04-03T08:50:59;128.60;2252.80
26272;DHT22;13997;48.902;12.472;2023-04-03T08:53:29;128.90;2252.80
26272;DHT22;13997;48.902;12.472;2023-04-03T08:55:58;153.70;2252.80
26272;DHT22;13997;48.902;12.472;2023-04-03T08:58:36;154.00;2252.80
26272;DHT22;13997;48.902;12.472;2023-04-03T09:03:49;153.90;2252.80
26272;DHT22;13997;48.902;12.472;2023-04-03T09:14:01;153.90;2252.80
26272;DHT22;13997;48.902;12.472;2023-04-03T09:17:00;153.90;2252.80
26272;DHT22;13997;48.902;12.472;2023-04-03T09:21:59;153.90;2252.80
26272;DHT22;13997;48.902;12.472;2023-04-03T09:24:27;154.00;2252.80
26272;DHT22;13997;48.902;12.472;2023-04-03T09:27:19;154.30;2252.80
26272;DHT22;13997;48.902;12.472;2023-04-03T09:29:45;154.20;2252.80
26272;DHT22;13997;48.902;12.472;2023-04-03T09:32:26;154.30;2252.80
26272;DHT22;13997;48.902;12.472;2023-04-03T09:34:54;154.40;2252.80
26272;DHT22;13997;48.902;12.472;2023-04-03T09:40:02;179.50;2252.80
26272;DHT22;13997;48.902;12.472;2023-04-03T09:42:30;179.50;2252.80
26272;DHT22;13997;48.902;12.472;2023-04-03T09:44:57;179.30;2252.80
26272;DHT22;13997;48.902;12.472;2023-04-03T09:47:25;179.20;2252.80
26272;DHT22;13997;48.902;12.472;2023-04-03T09:50:18;154.50;2252.80
26272;DHT22;13997;48.902;12.472;2023-04-03T09:52:49;179.50;2252.80
26272;DHT22;13997;48.902;12.472;2023-04-03T09:55:22;179.50;2252.80
26272;DHT22;13997;48.902;12.472;2023-04-03T09:57:54;154.50;2252.80
26272;DHT22;13997;48.902;12.472;2023-04-03T10:00:25;154.40;2252.80
26272;DHT22;13997;48.902;12.472;2023-04-03T10:02:54;154.50;2252.80
26272;DHT22;13997;48.902;12.472;2023-04-03T10:05:35;154.50;2252.80
26272;DHT22;13997;48.902;12.472;2023-04-03T10:10:43;154.50;2252.80
26272;DHT22;13997;48.902;12.472;2023-04-03T10:13:27;179.40;2252.80
26272;DHT22;13997;48.902;12.472;2023-04-03T10:16:06;179.60;2252.80
26272;DHT22;13997;48.902;12.472;2023-04-03T10:18:42;179.70;2176.00
26272;DHT22;13997;48.902;12.472;2023-04-03T10:21:43;179.90;2124.80
26272;DHT22;13997;48.902;12.472;2023-04-03T10:29:40;179.60;2099.20
26272;DHT22;13997;48.902;12.472;2023-04-03T10:43:18;179.50;2150.40
26272;DHT22;13997;48.902;12.472;2023-04-03T10:46:13;179.40;2124.80
26272;DHT22;13997;48.902;12.472;2023-04-03T10:48:48;179.50;2176.00
26272;DHT22;13997;48.902;12.472;2023-04-03T10:56:42;179.40;2099.20
26272;DHT22;13997;48.902;12.472;2023-04-03T10:59:35;179.50;2150.40
26272;DHT22;13997;48.902;12.472;2023-04-03T11:02:07;179.90;2176.00
26272;DHT22;13997;48.902;12.472;2023-04-03T11:04:40;180.10;2124.80
26272;DHT22;13997;48.902;12.472;2023-04-03T11:09:44;204.90;2150.40
26272;DHT22;13997;48.902;12.472;2023-04-03T11:12:42;180.10;2150.40
26272;DHT22;13997;48.902;12.472;2023-04-03T11:15:13;204.90;2124.80
26272;DHT22;13997;48.902;12.472;2023-04-03T11:20:31;205.30;2073.60
26272;DHT22;13997;48.902;12.472;2023-04-03T11:23:19;205.20;2073.60
26272;DHT22;13997;48.902;12.472;2023-04-03T11:25:50;205.30;2124.80
26272;DHT22;13997;48.902;12.472;2023-04-03T11:28:17;205.30;2073.60
26272;DHT22;13997;48.902;12.472;2023-04-03T11:31:05;205.20;2022.40
26272;DHT22;13997;48.902;12.472;2023-04-03T11:36:29;180.10;2022.40
26272;DHT22;13997;48.902;12.472;2023-04-03T11:38:59;180.00;2022.40
26272;DHT22;13997;48.902;12.472;2023-04-03T11:41:31;180.10;1945.60
26272;DHT22;13997;48.902;12.472;2023-04-03T11:47:00;205.00;1971.20
26272;DHT22;13997;48.902;12.472;2023-04-03T11:50:00;205.00;1971.20
26272;DHT22;13997;48.902;12.472;2023-04-03T12:19:29;180.00;1945.60
26272;DHT22;13997;48.902;12.472;2023-04-03T12:27:05;179.90;1996.80
26272;DHT22;13997;48.902;12.472;2023-04-03T12:35:37;179.70;1971.20
26272;DHT22;13997;48.902;12.472;2023-04-03T12:46:39;179.30;2022.40
26272;DHT22;13997;48.902;12.472;2023-04-03T12:49:26;154.30;2022.40
26272;DHT22;13997;48.902;12.472;2023-04-03T12:51:56;154.10;2073.60
26272;DHT22;13997;48.902;12.472;2023-04-03T12:56:49;154.30;2022.40
26272;DHT22;13997;48.902;12.472;2023-04-03T12:59:22;179.20;2073.60
26272;DHT22;13997;48.902;12.472;2023-04-03T13:01:59;179.40;1971.20
26272;DHT22;13997;48.902;12.472;2023-04-03T13:04:31;179.70;1996.80
26272;DHT22;13997;48.902;12.472;2023-04-03T13:06:57;180.10;2022.40
26272;DHT22;13997;48.902;12.472;2023-04-03T13:09:30;204.90;2048.00
26272;DHT22;13997;48.902;12.472;2023-04-03T13:12:16;204.80;1996.80
26272;DHT22;13997;48.902;12.472;2023-04-03T13:14:52;180.10;1996.80
26272;DHT22;13997;48.902;12.472;2023-04-03T13:17:18;179.90;1971.20
26272;DHT22;13997;48.902;12.472;2023-04-03T13:19:45;179.60;1996.80
26272;DHT22;13997;48.902;12.472;2023-04-03T13:24:59;179.60;1920.00
26272;DHT22;13997;48.902;12.472;2023-04-03T13:27:30;179.30;1971.20
26272;DHT22;13997;48.902;12.472;2023-04-03T13:29:59;179.20;1996.80
26272;DHT22;13997;48.902;12.472;2023-04-03T13:55:34;179.90;1894.40
26272;DHT22;13997;48.902;12.472;2023-04-03T14:07:24;180.10;1971.20
26272;DHT22;13997;48.902;12.472;2023-04-03T14:09:50;179.90;1971.20
26272;DHT22;13997;48.902;12.472;2023-04-03T14:15:22;179.60;1971.20
26272;DHT22;13997;48.902;12.472;2023-04-03T14:17:49;179.90;2022.40
26272;DHT22;13997;48.902;12.472;2023-04-03T14:20:19;204.80;1996.80
26272;DHT22;13997;48.902;12.472;2023-04-03T14:22:45;204.80;1920.00
26272;DHT22;13997;48.902;12.472;2023-04-03T14:25:11;204.90;1920.00
26272;DHT22;13997;48.902;12.472;2023-04-03T14:27:43;205.00;1920.00
26272;DHT22;13997;48.902;12.472;2023-04-03T14:30:26;205.10;1920.00
26272;DHT22;13997;48.902;12.472;2023-04-03T14:32:53;205.40;1945.60
26272;DHT22;13997;48.902;12.472;2023-04-03T14:35:19;205.40;1894.40
26272;DHT22;13997;48.902;12.472;2023-04-03T14:37:45;205.10;1868.80
26272;DHT22;13997;48.902;12.472;2023-04-03T14:40:18;179.80;1843.20
26272;DHT22;13997;48.902;12.472;2023-04-03T14:42:44;179.40;1920.00
26272;DHT22;13997;48.902;12.472;2023-04-03T14:45:12;154.50;1945.60
26272;DHT22;13997;48.902;12.472;2023-04-03T14:47:47;154.30;1996.80
26272;DHT22;13997;48.902;12.472;2023-04-03T14:50:16;154.30;1996.80
26272;DHT22;13997;48.902;12.472;2023-04-03T14:52:43;154.30;2048.00
26272;DHT22;13997;48.902;12.472;2023-04-03T14:55:11;154.30;2048.00
26272;DHT22;13997;48.902;12.472;2023-04-03T14:57:38;154.30;2048.00
26272;DHT22;13997;48.902;12.472;2023-04-03T15:00:06;154.40;1996.80
26272;DHT22;13997;48.902;12.472;2023-04-03T15:02:35;154.30;1996.80
26272;DHT22;13997;48.902;12.472;2023-04-03T15:05:04;154.20;1996.80
26272;DHT22;13997;48.902;12.472;2023-04-03T15:07:34;154.20;1996.80
26272;DHT22;13997;48.902;12.472;2023-04-03T15:12:41;154.30;1996.80
26272;DHT22;13997;48.902;12.472;2023-04-03T15:15:08;154.20;1971.20
26272;DHT22;13997;48.902;12.472;2023-04-03T15:17:34;154.10;2022.40
26272;DHT22;13997;48.902;12.472;2023-04-03T15:20:00;154.20;2048.00
26272;DHT22;13997;48.902;12.472;2023-04-03T15:22:26;154.10;1971.20
26272;DHT22;13997;48.902;12.472;2023-04-03T15:24:51;154.10;1996.80
26272;DHT22;13997;48.902;12.472;2023-04-03T15:27:17;153.90;1971.20
26272;DHT22;13997;48.902;12.472;2023-04-03T15:29:43;153.70;1996.80
26272;DHT22;13997;48.902;12.472;2023-04-03T15:32:09;153.80;2048.00
26272;DHT22;13997;48.902;12.472;2023-04-03T15:34:36;153.80;1996.80
26272;DHT22;13997;48.902;12.472;2023-04-03T15:37:02;153.80;2022.40
26272;DHT22;13997;48.902;12.472;2023-04-03T15:39:28;153.70;1996.80
26272;DHT22;13997;48.902;12.472;2023-04-03T15:41:54;153.60;1971.20
26272;DHT22;13997;48.902;12.472;2023-04-03T15:44:21;128.80;1996.80
26272;DHT22;13997;48.902;12.472;2023-04-03T15:46:47;128.80;2048.00
26272;DHT22;13997;48.902;12.472;2023-04-03T15:49:18;128.70;1996.80
26272;DHT22;13997;48.902;12.472;2023-04-03T15:51:44;128.70;1996.80
26272;DHT22;13997;48.902;12.472;2023-04-03T15:54:09;128.70;2022.40
26272;DHT22;13997;48.902;12.472;2023-04-03T15:56:35;128.70;1996.80
26272;DHT22;13997;48.902;12.472;2023-04-03T15:59:01;128.70;2048.00
26272;DHT22;13997;48.902;12.472;2023-04-03T16:01:26;128.70;2048.00
26272;DHT22;13997;48.902;12.472;2023-04-03T16:03:52;128.70;2073.60
26272;DHT22;13997;48.902;12.472;2023-04-03T16:06:18;128.60;2099.20
26272;DHT22;13997;48.902;12.472;2023-04-03T16:08:44;128.60;2099.20
26272;DHT22;13997;48.902;12.472;2023-04-03T16:11:11;128.60;2099.20
26272;DHT22;13997;48.902;12.472;2023-04-03T16:13:37;128.60;2124.80
26272;DHT22;13997;48.902;12.472;2023-04-03T16:16:04;128.80;2124.80
26272;DHT22;13997;48.902;12.472;2023-04-03T16:18:30;128.80;2073.60
26272;DHT22;13997;48.902;12.472;2023-04-03T16:20:56;128.60;2073.60
26272;DHT22;13997;48.902;12.472;2023-04-03T16:23:22;128.50;2048.00
26272;DHT22;13997;48.902;12.472;2023-04-03T16:25:48;128.40;2124.80
26272;DHT22;13997;48.902;12.472;2023-04-03T16:28:16;128.30;2124.80
26272;DHT22;13997;48.902;12.472;2023-04-03T16:30:43;128.20;2150.40
26272;DHT22;13997;48.902;12.472;2023-04-03T16:33:10;128.10;2176.00
26272;DHT22;13997;48.902;12.472;2023-04-03T16:35:36;128.00;2176.00
26272;DHT22;13997;48.902;12.472;2023-04-03T16:38:04;103.30;2150.40
26272;DHT22;13997;48.902;12.472;2023-04-03T16:40:30;103.20;2176.00
26272;DHT22;13997;48.902;12.472;2023-04-03T16:42:56;103.20;2176.00
26272;DHT22;13997;48.902;12.472;2023-04-03T16:45:21;103.20;2201.60
26272;DHT22;13997;48.902;12.472;2023-04-03T16:47:47;103.20;2201.60
26272;DHT22;13997;48.902;12.472;2023-04-03T16:50:13;103.20;2201.60
26272;DHT22;13997;48.902;12.472;2023-04-03T16:52:38;103.20;2227.20
26272;DHT22;13997;48.902;12.472;2023-04-03T16:55:05;103.20;2227.20
26272;DHT22;13997;48.902;12.472;2023-04-03T16:57:31;103.20;2227.20
26272;DHT22;13997;48.902;12.472;2023-04-03T16:59:57;103.10;2227.20
26272;DHT22;13997;48.902;12.472;2023-04-03T17:02:23;103.00;2227.20
26272;DHT22;13997;48.902;12.472;2023-04-03T17:04:54;102.90;2227.20
26272;DHT22;13997;48.902;12.472;2023-04-03T17:07:21;102.90;2227.20
26272;DHT22;13997;48.902;12.472;2023-04-03T17:09:47;102.80;2227.20
26272;DHT22;13997;48.902;12.472;2023-04-03T17:12:13;102.70;2227.20
26272;DHT22;13997;48.902;12.472;2023-04-03T17:14:38;102.70;2227.20
26272;DHT22;13997;48.902;12.472;2023-04-03T17:17:04;102.60;2227.20
26272;DHT22;13997;48.902;12.472;2023-04-03T17:19:30;102.50;2227.20
26272;DHT22;13997;48.902;12.472;2023-04-03T17:21:57;102.50;2227.20
26272;DHT22;13997;48.902;12.472;2023-04-03T17:24:23;102.40;2227.20